createdAt,value
2022-12-23T00:00:18.735Z,13.70
2022-12-23T00:02:47.367Z,8.50
2022-12-23T00:05:16.960Z,17.60
2022-12-23T00:07:45.466Z,9.67
2022-12-23T00:10:13.566Z,11.33
2022-12-23T00:12:58.668Z,13.27
2022-12-23T00:15:26.558Z,11.03
2022-12-23T00:17:54.491Z,9.00
2022-12-23T00:20:23.889Z,6.90
2022-12-23T00:23:06.800Z,10.03
2022-12-23T00:25:41.517Z,8.87
2022-12-23T00:28:11.751Z,12.83
2022-12-23T00:30:39.802Z,12.67
2022-12-23T00:33:07.719Z,6.77
2022-12-23T00:35:36.954Z,12.13
2022-12-23T00:38:04.897Z,8.93
2022-12-23T00:40:50.926Z,9.63
2022-12-23T00:43:18.971Z,17.30
2022-12-23T00:45:46.930Z,9.60
2022-12-23T00:48:32.754Z,20.03
2022-12-23T00:51:02.146Z,25.37
2022-12-23T00:53:30.044Z,13.83
2022-12-23T00:55:57.979Z,20.47
2022-12-23T00:58:26.603Z,13.37
2022-12-23T01:01:11.870Z,13.57
2022-12-23T01:03:57.293Z,10.47
2022-12-23T01:06:26.603Z,13.83
2022-12-23T01:08:54.495Z,9.17
2022-12-23T01:11:22.416Z,13.07
2022-12-23T01:13:50.311Z,6.20
2022-12-23T01:16:18.306Z,6.50
2022-12-23T01:18:46.527Z,6.00
2022-12-23T01:21:14.786Z,10.43
2022-12-23T01:23:44.067Z,9.03
2022-12-23T01:26:12.901Z,8.37
2022-12-23T01:28:40.933Z,9.23
2022-12-23T01:31:11.097Z,22.03
2022-12-23T01:33:39.032Z,9.37
2022-12-23T01:36:08.644Z,8.30
2022-12-23T01:38:36.746Z,9.93
2022-12-23T01:41:06.368Z,11.70
2022-12-23T01:43:51.956Z,18.83
2022-12-23T01:46:20.002Z,7.30
2022-12-23T01:48:50.511Z,7.67
2022-12-23T01:51:22.009Z,9.10
2022-12-23T01:53:52.079Z,9.53
2022-12-23T01:56:24.667Z,8.40
2022-12-23T01:58:55.501Z,8.37
2022-12-23T02:01:41.087Z,6.80
2022-12-23T02:04:11.142Z,8.87
2022-12-23T02:06:58.386Z,10.90
2022-12-23T02:09:28.175Z,9.33
2022-12-23T02:12:34.360Z,4.80
2022-12-23T02:15:31.309Z,10.23
2022-12-23T02:18:11.053Z,9.67
2022-12-23T02:21:05.072Z,11.17
2022-12-23T02:24:08.109Z,9.07
2022-12-23T02:27:11.417Z,9.30
2022-12-23T02:30:27.135Z,10.93
2022-12-23T02:33:25.990Z,9.50
2022-12-23T02:36:00.309Z,10.93
2022-12-23T02:38:31.531Z,9.30
2022-12-23T02:41:07.492Z,13.97
2022-12-23T02:43:42.309Z,9.53
2022-12-23T02:46:13.754Z,6.30
2022-12-23T02:48:47.330Z,7.53
2022-12-23T02:51:16.759Z,7.13
2022-12-23T02:53:48.029Z,10.20
2022-12-23T02:56:16.472Z,10.90
2022-12-23T02:58:48.935Z,8.93
2022-12-23T03:01:17.544Z,11.80
2022-12-23T03:03:47.358Z,12.40
2022-12-23T03:06:21.352Z,12.63
2022-12-23T03:08:51.268Z,7.83
2022-12-23T03:11:19.618Z,4.10
2022-12-23T03:14:04.011Z,10.63
2022-12-23T03:16:38.651Z,11.33
2022-12-23T03:19:12.870Z,5.90
2022-12-23T03:21:44.937Z,4.03
2022-12-23T03:24:20.311Z,8.47
2022-12-23T03:26:51.884Z,4.97
2022-12-23T03:29:24.495Z,9.07
2022-12-23T03:31:54.118Z,8.67
2022-12-23T03:34:26.760Z,24.73
2022-12-23T03:36:57.156Z,9.00
2022-12-23T03:39:29.273Z,6.43
2022-12-23T03:42:00.327Z,10.83
2022-12-23T03:44:31.842Z,9.57
2022-12-23T03:47:04.571Z,11.13
2022-12-23T03:49:36.441Z,9.97
2022-12-23T03:52:06.965Z,6.80
2022-12-23T03:54:38.314Z,8.10
2022-12-23T03:57:07.047Z,13.40
2022-12-23T03:59:36.472Z,8.53
2022-12-23T04:02:09.227Z,9.97
2022-12-23T04:04:49.072Z,18.33
2022-12-23T04:07:18.963Z,8.10
2022-12-23T04:09:47.807Z,13.30
2022-12-23T04:12:16.040Z,7.20
2022-12-23T04:14:47.404Z,19.53
2022-12-23T04:17:15.811Z,16.07
2022-12-23T04:19:46.451Z,9.43
2022-12-23T04:22:14.376Z,9.07
2022-12-23T04:24:42.843Z,10.30
2022-12-23T04:27:12.390Z,14.13
2022-12-23T04:29:40.313Z,14.50
2022-12-23T04:32:08.938Z,8.40
2022-12-23T04:34:37.150Z,13.10
2022-12-23T04:37:06.448Z,9.90
2022-12-23T04:39:34.373Z,15.77
2022-12-23T04:42:02.289Z,20.10
2022-12-23T04:44:30.191Z,8.60
2022-12-23T04:46:58.147Z,11.23
2022-12-23T04:49:26.199Z,14.20
2022-12-23T04:51:54.090Z,22.13
2022-12-23T04:54:23.329Z,18.13
2022-12-23T04:56:51.258Z,15.13
2022-12-23T04:59:19.116Z,12.50
2022-12-23T05:01:47.236Z,7.63
2022-12-23T05:04:15.330Z,18.73
2022-12-23T05:06:43.317Z,13.23
2022-12-23T05:09:11.295Z,14.53
2022-12-23T05:11:42.575Z,12.93
2022-12-23T05:14:10.763Z,21.60
2022-12-23T05:16:38.740Z,21.17
2022-12-23T05:19:06.755Z,13.00
2022-12-23T05:21:34.653Z,23.77
2022-12-23T05:24:02.537Z,15.43
2022-12-23T05:26:30.508Z,11.73
2022-12-23T05:28:59.755Z,20.93
2022-12-23T05:31:27.784Z,15.30
2022-12-23T05:33:58.371Z,14.60
2022-12-23T05:36:28.806Z,17.83
2022-12-23T05:38:57.483Z,20.73
2022-12-23T05:41:25.396Z,17.97
2022-12-23T05:43:53.274Z,13.93
2022-12-23T05:46:26.589Z,13.23
2022-12-23T05:48:54.898Z,19.40
2022-12-23T05:51:22.852Z,15.17
2022-12-23T05:53:50.753Z,16.97
2022-12-23T05:56:18.631Z,25.00
2022-12-23T05:58:46.545Z,26.13
2022-12-23T06:01:15.543Z,16.70
2022-12-23T06:03:44.904Z,23.20
2022-12-23T06:06:14.019Z,24.03
2022-12-23T06:08:41.977Z,21.10
2022-12-23T06:11:09.871Z,23.83
2022-12-23T06:13:37.797Z,24.33
2022-12-23T06:16:06.578Z,23.67
2022-12-23T06:18:34.520Z,14.70
2022-12-23T06:21:03.832Z,24.50
2022-12-23T06:23:31.710Z,21.47
2022-12-23T06:26:00.972Z,18.50
2022-12-23T06:28:29.384Z,15.67
2022-12-23T06:30:58.372Z,11.77
2022-12-23T06:33:26.427Z,18.30
2022-12-23T06:35:54.499Z,17.23
2022-12-23T06:38:23.795Z,12.43
2022-12-23T06:40:51.759Z,16.83
2022-12-23T06:43:19.684Z,17.93
2022-12-23T06:45:48.536Z,13.87
2022-12-23T06:48:17.119Z,22.40
2022-12-23T06:50:45.758Z,21.80
2022-12-23T06:53:13.790Z,24.20
2022-12-23T06:55:43.137Z,22.83
2022-12-23T06:58:11.042Z,15.93
2022-12-23T07:00:38.919Z,20.70
2022-12-23T07:03:06.863Z,23.30
2022-12-23T07:05:37.370Z,21.23
2022-12-23T07:08:06.364Z,24.63
2022-12-23T07:10:34.989Z,32.00
2022-12-23T07:13:04.282Z,27.33
2022-12-23T07:15:32.189Z,28.20
2022-12-23T07:18:00.113Z,31.27
2022-12-23T07:20:28.062Z,22.33
2022-12-23T07:22:57.117Z,41.67
2022-12-23T07:25:25.712Z,26.40
2022-12-23T07:27:54.239Z,28.60
2022-12-23T07:30:23.903Z,30.70
2022-12-23T07:32:52.338Z,30.13
2022-12-23T07:35:20.700Z,25.33
2022-12-23T07:37:53.160Z,20.63
2022-12-23T07:40:21.036Z,28.67
2022-12-23T07:42:49.921Z,26.50
2022-12-23T07:45:18.063Z,21.80
2022-12-23T07:47:47.388Z,21.10
2022-12-23T07:50:15.362Z,16.43
2022-12-23T07:52:43.233Z,21.70
2022-12-23T07:55:11.397Z,18.50
2022-12-23T07:57:40.015Z,24.00
2022-12-23T08:00:09.606Z,30.63
2022-12-23T08:02:37.723Z,21.93
2022-12-23T08:05:08.304Z,25.47
2022-12-23T08:07:36.282Z,14.77
2022-12-23T08:10:04.818Z,21.43
2022-12-23T08:12:32.872Z,19.67
2022-12-23T08:15:00.777Z,27.80
2022-12-23T08:17:29.565Z,26.53
2022-12-23T08:19:57.909Z,21.90
2022-12-23T08:22:27.209Z,35.90
2022-12-23T08:24:55.086Z,29.23
2022-12-23T08:27:22.994Z,16.57
2022-12-23T08:29:50.864Z,16.27
2022-12-23T08:32:18.779Z,21.60
2022-12-23T08:34:46.676Z,20.67
2022-12-23T08:37:15.071Z,18.27
2022-12-23T08:39:44.399Z,14.83
2022-12-23T08:42:12.359Z,17.90
2022-12-23T08:44:40.277Z,24.90
2022-12-23T08:47:08.398Z,17.50
2022-12-23T08:49:36.415Z,10.13
2022-12-23T08:52:04.697Z,12.13
2022-12-23T08:54:32.596Z,10.60
2022-12-23T08:57:01.919Z,9.93
2022-12-23T08:59:29.825Z,25.37
2022-12-23T09:01:59.750Z,26.03
2022-12-23T09:04:27.916Z,17.10
2022-12-23T09:06:55.818Z,14.10
2022-12-23T09:09:23.691Z,9.90
2022-12-23T09:11:51.667Z,3.53
2022-12-23T09:14:20.942Z,2.60
2022-12-23T09:16:51.844Z,2.53
2022-12-23T09:19:19.715Z,1.53
2022-12-23T09:21:47.761Z,2.67
2022-12-23T09:24:15.763Z,4.10
2022-12-23T09:26:43.647Z,4.60
2022-12-23T09:29:11.571Z,4.03
2022-12-23T09:31:40.970Z,2.50
2022-12-23T09:34:12.122Z,2.60
2022-12-23T09:36:40.027Z,2.07
2022-12-23T09:39:07.978Z,1.97
2022-12-23T09:41:50.080Z,2.60
2022-12-23T09:44:34.504Z,2.40
2022-12-23T09:47:05.851Z,1.40
2022-12-23T09:49:34.058Z,3.10
2022-12-23T09:52:05.686Z,2.20
2022-12-23T09:54:42.862Z,1.77
2022-12-23T09:57:19.854Z,1.70
2022-12-23T09:59:57.216Z,2.87
2022-12-23T10:02:34.756Z,1.80
2022-12-23T10:05:06.837Z,2.00
2022-12-23T10:07:37.129Z,2.30
2022-12-23T10:10:13.263Z,1.80
2022-12-23T10:12:43.578Z,1.30
2022-12-23T10:15:21.564Z,2.20
2022-12-23T10:17:53.789Z,1.87
2022-12-23T10:20:27.739Z,4.43
2022-12-23T10:22:56.891Z,2.40
2022-12-23T10:25:30.209Z,2.97
2022-12-23T10:27:58.139Z,2.70
2022-12-23T10:30:54.013Z,3.40
2022-12-23T10:33:21.201Z,3.10
2022-12-23T10:35:57.820Z,3.80
2022-12-23T10:38:33.960Z,2.80
2022-12-23T10:41:09.504Z,1.67
2022-12-23T10:43:45.158Z,2.93
2022-12-23T10:46:19.187Z,3.03
2022-12-23T10:48:56.752Z,2.90
2022-12-23T10:51:27.907Z,3.00
2022-12-23T10:53:58.006Z,3.30
2022-12-23T10:56:26.391Z,3.97
2022-12-23T10:58:57.100Z,3.90
2022-12-23T11:01:27.285Z,4.07
2022-12-23T11:04:05.974Z,3.63
2022-12-23T11:06:37.786Z,3.50
2022-12-23T11:09:07.132Z,4.27
2022-12-23T11:11:58.349Z,9.87
2022-12-23T11:14:34.931Z,4.60
2022-12-23T11:17:03.296Z,4.23
2022-12-23T11:19:32.800Z,4.23
2022-12-23T11:22:01.945Z,4.00
2022-12-23T11:24:37.969Z,3.40
2022-12-23T11:27:14.411Z,4.20
2022-12-23T11:29:46.595Z,3.73
2022-12-23T11:32:18.201Z,6.67
2022-12-23T11:34:48.368Z,5.07
2022-12-23T11:37:26.298Z,4.10
2022-12-23T11:39:54.484Z,4.43
2022-12-23T11:42:27.280Z,3.23
2022-12-23T11:44:55.941Z,3.93
2022-12-23T11:47:30.866Z,6.47
2022-12-23T11:50:03.000Z,5.43
2022-12-23T11:52:31.924Z,3.90
2022-12-23T11:55:01.344Z,3.10
2022-12-23T11:57:34.985Z,3.00
2022-12-23T12:00:04.324Z,2.40
2022-12-23T12:02:36.519Z,2.33
2022-12-23T12:05:09.730Z,2.73
2022-12-23T12:07:37.868Z,2.10
2022-12-23T12:10:07.056Z,1.53
2022-12-23T12:12:34.954Z,2.07
2022-12-23T12:15:02.868Z,1.67
2022-12-23T12:17:37.031Z,1.30
2022-12-23T12:20:12.104Z,2.60
2022-12-23T12:22:43.559Z,1.90
2022-12-23T12:25:18.312Z,2.60
2022-12-23T12:27:55.658Z,1.43
2022-12-23T12:30:32.860Z,1.73
2022-12-23T12:33:05.200Z,1.47
2022-12-23T12:35:39.300Z,1.37
2022-12-23T12:38:14.873Z,1.67
2022-12-23T12:40:44.835Z,5.57
2022-12-23T12:43:21.930Z,2.10
2022-12-23T12:45:54.065Z,1.90
2022-12-23T12:48:40.065Z,1.40
2022-12-23T12:51:17.039Z,1.40
2022-12-23T12:53:58.223Z,1.00
2022-12-23T12:56:33.121Z,1.93
2022-12-23T12:59:01.019Z,1.80
2022-12-23T13:01:39.274Z,2.30
2022-12-23T13:04:19.058Z,1.50
2022-12-23T13:06:54.895Z,1.90
2022-12-23T13:09:30.018Z,1.70
2022-12-23T13:12:03.314Z,1.97
2022-12-23T13:14:47.659Z,1.70
2022-12-23T13:17:20.749Z,2.50
2022-12-23T13:19:52.551Z,3.10
2022-12-23T13:22:26.461Z,1.53
2022-12-23T13:24:57.871Z,2.00
2022-12-23T13:27:29.508Z,3.57
2022-12-23T13:30:03.659Z,2.00
2022-12-23T13:32:48.347Z,1.90
2022-12-23T13:35:27.269Z,2.30
2022-12-23T13:38:01.489Z,3.33
2022-12-23T13:40:36.423Z,1.40
2022-12-23T13:43:07.630Z,1.93
2022-12-23T13:45:39.458Z,3.63
2022-12-23T13:48:19.207Z,8.60
2022-12-23T13:50:53.950Z,7.37
2022-12-23T13:53:26.681Z,6.73
2022-12-23T13:56:06.915Z,18.90
2022-12-23T13:58:35.074Z,9.17
2022-12-23T14:01:22.181Z,5.50
2022-12-23T14:03:51.039Z,5.43
2022-12-23T14:06:44.058Z,4.23
2022-12-23T14:09:17.149Z,2.00
2022-12-23T14:11:45.922Z,2.10
2022-12-23T14:14:20.485Z,2.80
2022-12-23T14:16:56.783Z,1.70
2022-12-23T14:19:38.033Z,4.73
2022-12-23T14:22:15.111Z,4.83
2022-12-23T14:25:24.441Z,1.63
2022-12-23T14:27:57.735Z,2.03
2022-12-23T14:30:34.940Z,3.20
2022-12-23T14:33:06.215Z,3.93
2022-12-23T14:35:56.329Z,2.77
2022-12-23T14:38:31.980Z,2.93
2022-12-23T14:41:27.050Z,6.53
2022-12-23T14:43:59.472Z,4.93
2022-12-23T14:47:02.958Z,5.43
2022-12-23T14:49:41.043Z,6.93
2022-12-23T14:52:46.408Z,6.97
2022-12-23T14:55:48.632Z,6.93
2022-12-23T14:58:47.514Z,8.97
2022-12-23T15:01:18.016Z,8.60
2022-12-23T15:03:48.550Z,8.93
2022-12-23T15:06:19.927Z,9.67
2022-12-23T15:08:49.082Z,10.83
2022-12-23T15:11:22.488Z,9.13
2022-12-23T15:13:53.574Z,9.73
2022-12-23T15:16:29.921Z,10.20
2022-12-23T15:18:59.573Z,11.43
2022-12-23T15:21:32.595Z,10.43
2022-12-23T15:24:00.693Z,12.73
2022-12-23T15:26:31.827Z,13.93
2022-12-23T15:29:01.820Z,10.13
2022-12-23T15:31:33.514Z,12.53
2022-12-23T15:34:08.874Z,13.30
2022-12-23T15:36:44.294Z,11.97
2022-12-23T15:39:19.259Z,12.37
2022-12-23T15:41:48.453Z,14.10
2022-12-23T15:44:21.769Z,11.30
2022-12-23T15:46:50.574Z,15.90
2022-12-23T15:49:19.582Z,11.67
2022-12-23T15:52:07.052Z,19.03
2022-12-23T15:54:37.798Z,13.20
2022-12-23T15:57:06.065Z,12.93
2022-12-23T15:59:38.184Z,14.77
2022-12-23T16:02:32.707Z,20.00
2022-12-23T16:05:01.283Z,14.27
2022-12-23T16:07:34.761Z,15.30
2022-12-23T16:10:05.164Z,47.87
2022-12-23T16:12:35.590Z,16.20
2022-12-23T16:15:23.709Z,25.40
2022-12-23T16:17:51.663Z,18.17
2022-12-23T16:20:24.290Z,12.80
2022-12-23T16:22:53.619Z,12.23
2022-12-23T16:25:24.706Z,17.33
2022-12-23T16:27:57.010Z,13.67
2022-12-23T16:30:30.015Z,13.20
2022-12-23T16:32:59.047Z,11.10
2022-12-23T16:35:47.076Z,11.03
2022-12-23T16:38:18.152Z,12.40
2022-12-23T16:40:47.951Z,11.60
2022-12-23T16:43:16.879Z,12.43
2022-12-23T16:45:46.947Z,19.20
2022-12-23T16:48:20.501Z,14.73
2022-12-23T16:50:49.485Z,15.97
2022-12-23T16:53:17.408Z,14.93
2022-12-23T16:55:52.372Z,17.90
2022-12-23T16:58:24.731Z,16.47
2022-12-23T17:00:54.198Z,17.10
2022-12-23T17:03:22.168Z,19.80
2022-12-23T17:05:50.080Z,21.23
2022-12-23T17:08:18.238Z,22.27
2022-12-23T17:10:46.396Z,17.53
2022-12-23T17:13:17.165Z,17.17
2022-12-23T17:15:45.282Z,21.90
2022-12-23T17:18:17.425Z,18.30
2022-12-23T17:20:46.420Z,20.30
2022-12-23T17:23:25.664Z,20.10
2022-12-23T17:25:53.692Z,21.60
2022-12-23T17:28:21.695Z,24.13
2022-12-23T17:30:55.961Z,18.63
2022-12-23T17:33:29.388Z,31.53
2022-12-23T17:35:57.281Z,32.63
2022-12-23T17:38:25.335Z,30.03
2022-12-23T17:40:55.059Z,40.63
2022-12-23T17:43:23.206Z,64.70
2022-12-23T17:45:51.268Z,43.07
2022-12-23T17:48:22.356Z,41.00
2022-12-23T17:50:54.667Z,28.53
2022-12-23T17:53:22.559Z,22.03
2022-12-23T17:55:50.459Z,23.67
2022-12-23T17:58:18.334Z,34.17
2022-12-23T18:00:46.256Z,36.00
2022-12-23T18:03:22.459Z,30.90
2022-12-23T18:05:57.261Z,37.93
2022-12-23T18:08:30.563Z,63.23
2022-12-23T18:10:59.408Z,69.83
2022-12-23T18:13:27.303Z,56.20
2022-12-23T18:15:55.344Z,39.30
2022-12-23T18:18:32.103Z,28.17
2022-12-23T18:21:06.726Z,36.20
2022-12-23T18:23:37.217Z,39.43
2022-12-23T18:26:05.204Z,35.67
2022-12-23T18:28:33.153Z,54.27
2022-12-23T18:31:01.203Z,50.40
2022-12-23T18:33:30.307Z,51.83
2022-12-23T18:35:58.507Z,38.43
2022-12-23T18:38:26.452Z,48.87
2022-12-23T18:40:56.686Z,47.63
2022-12-23T18:43:28.075Z,45.27
2022-12-23T18:45:56.032Z,31.40
2022-12-23T18:48:23.982Z,32.83
2022-12-23T18:50:51.929Z,27.03
2022-12-23T18:53:24.532Z,28.33
2022-12-23T18:55:55.465Z,33.03
2022-12-23T18:58:24.437Z,29.90
2022-12-23T19:00:54.263Z,15.17
2022-12-23T19:03:23.887Z,10.27
2022-12-23T19:05:52.726Z,7.03
2022-12-23T19:08:26.329Z,10.93
2022-12-23T19:10:56.467Z,5.83
2022-12-23T19:13:25.017Z,5.93
2022-12-23T19:15:52.986Z,3.80
2022-12-23T19:18:22.861Z,2.53
2022-12-23T19:20:50.927Z,2.30
2022-12-23T19:23:18.843Z,1.93
2022-12-23T19:25:54.579Z,1.50
2022-12-23T19:28:24.451Z,1.93
2022-12-23T19:30:52.371Z,2.17
2022-12-23T19:33:20.312Z,1.00
2022-12-23T19:35:48.204Z,2.20
2022-12-23T19:38:16.354Z,5.53
2022-12-23T19:40:44.270Z,5.20
2022-12-23T19:43:12.222Z,4.37
2022-12-23T19:45:41.599Z,17.00
2022-12-23T19:48:09.825Z,5.50
2022-12-23T19:50:37.747Z,5.57
2022-12-23T19:53:05.647Z,5.80
2022-12-23T19:55:33.550Z,3.57
2022-12-23T19:58:01.500Z,5.43
2022-12-23T20:00:29.382Z,11.37
2022-12-23T20:02:59.354Z,8.43
2022-12-23T20:05:27.574Z,3.90
2022-12-23T20:07:55.465Z,3.13
2022-12-23T20:10:23.370Z,2.30
2022-12-23T20:12:51.362Z,5.17
2022-12-23T20:15:19.376Z,10.20
2022-12-23T20:17:47.278Z,3.97
2022-12-23T20:20:16.638Z,2.47
2022-12-23T20:22:44.587Z,6.00
2022-12-23T20:25:12.487Z,0.80
2022-12-23T20:27:40.366Z,0.50
2022-12-23T20:30:09.485Z,1.37
2022-12-23T20:32:37.416Z,0.70
2022-12-23T20:35:06.550Z,0.70
2022-12-23T20:37:35.824Z,0.70
2022-12-23T20:40:03.788Z,4.17
2022-12-23T20:42:31.695Z,1.00
2022-12-23T20:44:59.590Z,2.87
2022-12-23T20:47:27.495Z,2.20
2022-12-23T20:49:55.360Z,1.10
2022-12-23T20:52:23.276Z,0.57
2022-12-23T20:54:52.651Z,0.53
2022-12-23T20:57:20.733Z,0.60
2022-12-23T20:59:48.622Z,0.50
2022-12-23T21:02:16.950Z,22.00
2022-12-23T21:04:44.969Z,0.63
2022-12-23T21:07:12.883Z,1.70
2022-12-23T21:09:40.799Z,1.67
2022-12-23T21:12:10.079Z,0.90
2022-12-23T21:14:38.063Z,1.53
2022-12-23T21:17:05.946Z,1.70
2022-12-23T21:19:34.865Z,1.80
2022-12-23T21:22:03.263Z,1.53
2022-12-23T21:24:31.165Z,0.63
2022-12-23T21:26:59.095Z,1.43
2022-12-23T21:29:28.623Z,0.70
2022-12-23T21:31:56.942Z,0.57
2022-12-23T21:34:25.083Z,0.60
2022-12-23T21:36:53.057Z,0.80
2022-12-23T21:39:21.005Z,1.13
2022-12-23T21:41:50.988Z,1.13
2022-12-23T21:44:18.905Z,1.50
2022-12-23T21:46:50.868Z,0.80
2022-12-23T21:49:19.028Z,0.80
2022-12-23T21:51:46.971Z,0.83
2022-12-23T21:54:14.883Z,1.93
2022-12-23T21:56:43.200Z,1.00
2022-12-23T21:59:13.079Z,0.80
2022-12-23T22:01:41.717Z,1.00
2022-12-23T22:04:11.340Z,2.30
2022-12-23T22:06:43.441Z,1.00
2022-12-23T22:09:13.177Z,0.93
2022-12-23T22:11:41.222Z,1.10
2022-12-23T22:14:11.248Z,1.07
2022-12-23T22:16:39.267Z,1.23
2022-12-23T22:19:08.699Z,1.27
2022-12-23T22:21:39.565Z,1.43
2022-12-23T22:24:08.189Z,1.20
2022-12-23T22:26:36.650Z,2.40
2022-12-23T22:29:05.837Z,0.90
2022-12-23T22:31:37.390Z,1.17
2022-12-23T22:34:05.765Z,1.27
2022-12-23T22:36:34.178Z,1.30
2022-12-23T22:39:04.090Z,1.50
2022-12-23T22:41:32.459Z,1.60
2022-12-23T22:44:00.669Z,1.13
2022-12-23T22:46:29.152Z,1.33
2022-12-23T22:48:58.698Z,1.40
2022-12-23T22:51:28.280Z,1.20
2022-12-23T22:53:56.236Z,0.90
2022-12-23T22:56:26.515Z,1.47
2022-12-23T22:58:54.955Z,1.53
2022-12-23T23:01:24.648Z,1.03
2022-12-23T23:03:57.421Z,1.30
2022-12-23T23:06:26.873Z,1.43
2022-12-23T23:08:55.309Z,1.10
2022-12-23T23:11:23.619Z,1.23
2022-12-23T23:13:52.901Z,0.80
2022-12-23T23:16:20.893Z,1.33
2022-12-23T23:18:49.047Z,1.60
2022-12-23T23:21:17.431Z,1.40
2022-12-23T23:23:45.401Z,1.17
2022-12-23T23:26:13.592Z,1.50
2022-12-23T23:28:41.906Z,1.27
2022-12-23T23:33:59.566Z,0.80
2022-12-23T23:36:27.510Z,1.37
2022-12-23T23:38:55.427Z,0.90
2022-12-23T23:41:24.251Z,1.50
2022-12-23T23:43:52.323Z,1.40
2022-12-23T23:46:21.644Z,1.20
2022-12-23T23:48:49.604Z,1.17
2022-12-23T23:51:17.584Z,1.73
2022-12-23T23:53:45.506Z,0.93
2022-12-23T23:56:13.424Z,1.83
2022-12-23T23:58:41.370Z,6.20
